createdAt,value
2022-10-19T00:00:13.501Z,13.75
2022-10-19T00:01:16.519Z,13.74
2022-10-19T00:02:17.956Z,13.71
2022-10-19T00:03:22.356Z,13.71
2022-10-19T00:04:24.797Z,13.68
2022-10-19T00:05:26.153Z,13.67
2022-10-19T00:06:28.629Z,13.64
2022-10-19T00:07:29.983Z,13.60
2022-10-19T00:08:31.307Z,13.59
2022-10-19T00:09:32.641Z,13.55
2022-10-19T00:10:34.099Z,13.53
2022-10-19T00:11:36.646Z,13.50
2022-10-19T00:12:38.079Z,13.48
2022-10-19T00:13:39.482Z,13.48
2022-10-19T00:14:40.797Z,13.49
2022-10-19T00:15:42.146Z,13.47
2022-10-19T00:16:44.530Z,13.47
2022-10-19T00:17:45.951Z,13.46
2022-10-19T00:18:47.279Z,13.44
2022-10-19T00:19:48.594Z,13.43
2022-10-19T00:20:49.921Z,13.42
2022-10-19T00:21:51.831Z,13.43
2022-10-19T00:22:53.182Z,13.44
2022-10-19T00:23:54.641Z,13.44
2022-10-19T00:24:56.712Z,13.44
2022-10-19T00:25:58.262Z,13.45
2022-10-19T00:26:59.639Z,13.45
2022-10-19T00:28:01.480Z,13.45
2022-10-19T00:29:03.694Z,13.46
2022-10-19T00:30:05.422Z,13.48
2022-10-19T00:31:08.618Z,13.48
2022-10-19T00:32:10.001Z,13.49
2022-10-19T00:33:11.309Z,13.50
2022-10-19T00:34:12.609Z,13.52
2022-10-19T00:35:14.010Z,13.55
2022-10-19T00:36:25.813Z,13.57
2022-10-19T00:37:27.403Z,13.59
2022-10-19T00:38:28.750Z,13.64
2022-10-19T00:39:30.046Z,13.67
2022-10-19T00:40:36.925Z,13.71
2022-10-19T00:41:38.670Z,13.73
2022-10-19T00:42:40.038Z,13.75
2022-10-19T00:43:56.403Z,13.78
2022-10-19T00:44:59.455Z,13.84
2022-10-19T00:46:00.816Z,13.88
2022-10-19T00:47:07.626Z,13.91
2022-10-19T00:48:10.343Z,13.95
2022-10-19T00:49:21.990Z,13.95
2022-10-19T00:50:23.826Z,13.98
2022-10-19T00:51:27.013Z,13.99
2022-10-19T00:52:28.772Z,13.98
2022-10-19T00:53:30.613Z,14.01
2022-10-19T00:54:32.879Z,14.03
2022-10-19T00:55:34.515Z,14.08
2022-10-19T00:56:37.975Z,14.07
2022-10-19T00:57:39.535Z,14.06
2022-10-19T00:58:42.678Z,14.05
2022-10-19T00:59:45.534Z,14.03
2022-10-19T01:00:46.929Z,14.03
2022-10-19T01:01:49.205Z,14.02
2022-10-19T01:02:50.518Z,14.03
2022-10-19T01:03:52.092Z,14.04
2022-10-19T01:04:53.736Z,14.03
2022-10-19T01:05:55.579Z,14.05
2022-10-19T01:06:57.342Z,14.05
2022-10-19T01:07:58.670Z,14.07
2022-10-19T01:08:59.982Z,14.07
2022-10-19T01:10:01.950Z,14.11
2022-10-19T01:11:23.800Z,14.13
2022-10-19T01:12:35.315Z,14.13
2022-10-19T01:13:42.533Z,14.10
2022-10-19T01:14:46.841Z,14.10
2022-10-19T01:16:01.914Z,14.11
2022-10-19T01:17:23.157Z,14.10
2022-10-19T01:18:39.569Z,14.10
2022-10-19T01:19:59.290Z,14.10
2022-10-19T01:21:00.629Z,14.10
2022-10-19T01:22:04.727Z,14.13
2022-10-19T01:23:06.018Z,14.11
2022-10-19T01:24:13.384Z,14.14
2022-10-19T01:25:22.759Z,14.11
2022-10-19T01:26:42.888Z,14.11
2022-10-19T01:27:53.194Z,14.12
2022-10-19T01:28:57.671Z,14.13
2022-10-19T01:30:06.034Z,14.14
2022-10-19T01:31:07.302Z,14.14
2022-10-19T01:32:16.071Z,14.15
2022-10-19T01:33:17.347Z,14.15
2022-10-19T01:34:21.663Z,14.16
2022-10-19T01:35:29.159Z,14.18
2022-10-19T01:36:43.065Z,14.17
2022-10-19T01:37:48.990Z,14.21
2022-10-19T01:39:02.550Z,14.21
2022-10-19T01:40:03.910Z,14.26
2022-10-19T01:41:14.715Z,14.30
2022-10-19T01:42:30.944Z,14.31
2022-10-19T01:43:37.876Z,14.34
2022-10-19T01:44:58.026Z,14.31
2022-10-19T01:46:19.613Z,14.28
2022-10-19T01:47:26.709Z,14.29
2022-10-19T01:48:33.908Z,14.30
2022-10-19T01:49:41.304Z,14.30
2022-10-19T01:51:01.415Z,14.29
2022-10-19T01:52:04.990Z,14.30
2022-10-19T01:53:08.811Z,14.31
2022-10-19T01:54:12.390Z,14.30
2022-10-19T01:55:15.168Z,14.30
2022-10-19T01:56:18.237Z,14.32
2022-10-19T01:57:22.365Z,14.32
2022-10-19T01:58:27.092Z,14.33
2022-10-19T01:59:28.955Z,14.37
2022-10-19T02:00:31.401Z,14.36
2022-10-19T02:01:34.437Z,14.38
2022-10-19T02:02:37.586Z,14.37
2022-10-19T02:03:40.088Z,14.38
2022-10-19T02:04:42.143Z,14.41
2022-10-19T02:05:44.533Z,14.41
2022-10-19T02:06:46.090Z,14.39
2022-10-19T02:07:49.529Z,14.39
2022-10-19T02:08:52.017Z,14.41
2022-10-19T02:09:53.406Z,14.43
2022-10-19T02:10:56.361Z,14.43
2022-10-19T02:12:00.511Z,14.43
2022-10-19T02:13:02.918Z,14.42
2022-10-19T02:14:07.078Z,14.42
2022-10-19T02:15:14.424Z,14.42
2022-10-19T02:16:22.073Z,14.43
2022-10-19T02:17:26.606Z,14.43
2022-10-19T02:18:36.396Z,14.44
2022-10-19T02:19:37.766Z,14.45
2022-10-19T02:20:39.076Z,14.45
2022-10-19T02:21:40.616Z,14.47
2022-10-19T02:22:42.343Z,14.46
2022-10-19T02:23:44.518Z,14.46
2022-10-19T02:24:45.840Z,14.48
2022-10-19T02:25:47.301Z,14.49
2022-10-19T02:26:48.819Z,14.52
2022-10-19T02:27:50.173Z,14.51
2022-10-19T02:28:54.005Z,14.51
2022-10-19T02:29:55.923Z,14.50
2022-10-19T02:30:58.134Z,14.53
2022-10-19T02:32:00.278Z,14.54
2022-10-19T02:33:01.639Z,14.53
2022-10-19T02:34:02.972Z,14.53
2022-10-19T02:35:04.751Z,14.56
2022-10-19T02:36:06.314Z,14.57
2022-10-19T02:37:07.773Z,14.60
2022-10-19T02:38:11.248Z,14.60
2022-10-19T02:39:12.581Z,14.61
2022-10-19T02:40:14.182Z,14.62
2022-10-19T02:41:17.845Z,14.63
2022-10-19T02:42:26.715Z,14.61
2022-10-19T02:43:28.819Z,14.62
2022-10-19T02:44:34.684Z,14.62
2022-10-19T02:45:38.799Z,14.64
2022-10-19T02:46:48.989Z,14.64
2022-10-19T02:48:08.623Z,14.64
2022-10-19T02:49:10.690Z,14.69
2022-10-19T02:50:12.208Z,14.69
2022-10-19T02:51:29.785Z,14.72
2022-10-19T02:52:31.145Z,14.75
2022-10-19T02:53:32.456Z,14.73
2022-10-19T02:54:34.089Z,14.74
2022-10-19T02:55:35.462Z,14.75
2022-10-19T02:56:36.805Z,14.81
2022-10-19T02:57:38.123Z,14.80
2022-10-19T02:58:39.430Z,14.79
2022-10-19T02:59:40.812Z,14.77
2022-10-19T03:00:42.249Z,14.77
2022-10-19T03:01:43.626Z,14.73
2022-10-19T03:02:44.987Z,14.74
2022-10-19T03:03:46.868Z,14.72
2022-10-19T03:05:55.156Z,14.71
2022-10-19T03:06:56.504Z,14.70
2022-10-19T03:07:57.990Z,14.68
2022-10-19T03:08:59.318Z,14.69
2022-10-19T03:10:00.647Z,14.69
2022-10-19T03:11:01.973Z,14.69
2022-10-19T03:12:03.425Z,14.69
2022-10-19T03:13:04.841Z,14.73
2022-10-19T03:14:06.170Z,14.71
2022-10-19T03:15:07.808Z,14.70
2022-10-19T03:16:10.035Z,14.66
2022-10-19T03:17:11.389Z,14.64
2022-10-19T03:18:12.711Z,14.64
2022-10-19T03:19:14.109Z,14.63
2022-10-19T03:20:15.456Z,14.61
2022-10-19T03:21:17.523Z,14.60
2022-10-19T03:22:18.923Z,14.64
2022-10-19T03:23:20.252Z,14.62
2022-10-19T03:24:21.730Z,14.60
2022-10-19T03:25:23.128Z,14.58
2022-10-19T03:26:26.150Z,14.62
2022-10-19T03:27:27.525Z,14.63
2022-10-19T03:28:28.906Z,14.57
2022-10-19T03:29:30.245Z,14.57
2022-10-19T03:30:31.552Z,14.56
2022-10-19T03:31:32.909Z,14.54
2022-10-19T03:32:34.213Z,14.52
2022-10-19T03:33:35.568Z,14.51
2022-10-19T03:34:36.908Z,14.51
2022-10-19T03:35:38.235Z,14.50
2022-10-19T03:36:40.213Z,14.48
2022-10-19T03:37:41.881Z,14.45
2022-10-19T03:38:43.280Z,14.42
2022-10-19T03:39:44.582Z,14.41
2022-10-19T03:40:45.918Z,14.39
2022-10-19T03:41:47.250Z,14.42
2022-10-19T03:42:48.593Z,14.41
2022-10-19T03:43:50.142Z,14.41
2022-10-19T03:44:51.541Z,14.43
2022-10-19T03:45:52.909Z,14.41
2022-10-19T03:46:54.212Z,14.46
2022-10-19T03:47:55.542Z,14.44
2022-10-19T03:48:56.878Z,14.43
2022-10-19T03:49:58.230Z,14.43
2022-10-19T03:51:00.144Z,14.42
2022-10-19T03:52:01.447Z,14.39
2022-10-19T03:54:12.430Z,14.36
2022-10-19T03:55:13.834Z,14.37
2022-10-19T03:56:16.845Z,14.38
2022-10-19T03:57:18.248Z,14.41
2022-10-19T03:58:19.621Z,14.38
2022-10-19T03:59:20.973Z,14.38
2022-10-19T04:00:22.345Z,14.38
2022-10-19T04:01:25.455Z,14.41
2022-10-19T04:02:26.845Z,14.39
2022-10-19T04:03:28.289Z,14.38
2022-10-19T04:04:29.649Z,14.39
2022-10-19T04:05:30.992Z,14.39
2022-10-19T04:06:34.311Z,14.38
2022-10-19T04:07:35.942Z,14.43
2022-10-19T04:08:37.472Z,14.41
2022-10-19T04:09:39.086Z,14.42
2022-10-19T04:10:40.461Z,14.41
2022-10-19T04:11:42.111Z,14.40
2022-10-19T04:12:43.482Z,14.41
2022-10-19T04:13:44.808Z,14.40
2022-10-19T04:14:56.907Z,14.38
2022-10-19T04:15:59.404Z,14.36
2022-10-19T04:17:04.107Z,14.38
2022-10-19T04:18:05.462Z,14.43
2022-10-19T04:19:06.901Z,14.49
2022-10-19T04:20:08.621Z,14.44
2022-10-19T04:21:19.102Z,14.46
2022-10-19T04:22:20.462Z,14.44
2022-10-19T04:23:21.842Z,14.42
2022-10-19T04:24:23.337Z,14.43
2022-10-19T04:25:24.671Z,14.39
2022-10-19T04:26:26.138Z,14.35
2022-10-19T04:27:27.602Z,14.33
2022-10-19T04:28:29.436Z,14.32
2022-10-19T04:29:31.178Z,14.29
2022-10-19T04:30:32.793Z,14.28
2022-10-19T04:31:34.167Z,14.31
2022-10-19T04:32:35.491Z,14.32
2022-10-19T04:33:36.843Z,14.32
2022-10-19T04:34:39.991Z,14.28
2022-10-19T04:35:41.612Z,14.27
2022-10-19T04:36:42.959Z,14.25
2022-10-19T04:37:44.253Z,14.23
2022-10-19T04:38:45.656Z,14.26
2022-10-19T04:39:47.126Z,14.25
2022-10-19T04:40:48.466Z,14.22
2022-10-19T04:41:49.833Z,14.22
2022-10-19T04:42:51.258Z,14.23
2022-10-19T04:44:00.150Z,14.22
2022-10-19T04:45:01.719Z,14.25
2022-10-19T04:46:04.137Z,14.24
2022-10-19T04:47:05.495Z,14.24
2022-10-19T04:48:06.816Z,14.25
2022-10-19T04:49:08.120Z,14.23
2022-10-19T04:50:09.590Z,14.22
2022-10-19T04:51:11.295Z,14.22
2022-10-19T04:52:12.651Z,14.22
2022-10-19T04:53:14.341Z,14.23
2022-10-19T04:54:15.810Z,14.25
2022-10-19T04:55:17.161Z,14.20
2022-10-19T04:56:20.556Z,14.21
2022-10-19T04:57:21.916Z,14.19
2022-10-19T04:58:23.664Z,14.19
2022-10-19T04:59:25.054Z,14.22
2022-10-19T05:00:26.406Z,14.19
2022-10-19T05:01:28.755Z,14.17
2022-10-19T05:02:30.105Z,14.17
2022-10-19T05:03:31.437Z,14.18
2022-10-19T05:04:32.774Z,14.21
2022-10-19T05:05:34.164Z,14.19
2022-10-19T05:06:35.480Z,14.17
2022-10-19T05:07:36.994Z,14.17
2022-10-19T05:08:38.586Z,14.14
2022-10-19T05:09:39.951Z,14.15
2022-10-19T05:10:44.223Z,14.10
2022-10-19T05:11:51.226Z,14.11
2022-10-19T05:12:52.646Z,14.13
2022-10-19T05:13:53.994Z,14.12
2022-10-19T05:14:55.374Z,14.08
2022-10-19T05:16:00.534Z,14.05
2022-10-19T05:17:01.870Z,14.11
2022-10-19T05:18:03.234Z,14.07
2022-10-19T05:19:04.548Z,14.04
2022-10-19T05:20:06.194Z,13.98
2022-10-19T05:21:09.251Z,13.93
2022-10-19T05:22:10.617Z,13.88
2022-10-19T05:23:11.957Z,13.89
2022-10-19T05:24:13.268Z,13.87
2022-10-19T05:25:14.659Z,13.85
2022-10-19T05:26:17.190Z,13.85
2022-10-19T05:27:18.501Z,13.79
2022-10-19T05:28:19.879Z,13.78
2022-10-19T05:29:21.261Z,13.80
2022-10-19T05:30:22.640Z,13.84
2022-10-19T05:31:27.068Z,13.80
2022-10-19T05:32:28.605Z,13.76
2022-10-19T05:33:29.930Z,13.74
2022-10-19T05:34:31.238Z,13.74
2022-10-19T05:35:32.598Z,13.74
2022-10-19T05:36:35.070Z,13.74
2022-10-19T05:37:36.766Z,13.74
2022-10-19T05:38:38.344Z,13.75
2022-10-19T05:39:39.755Z,13.76
2022-10-19T05:40:44.778Z,13.86
2022-10-19T05:41:46.909Z,13.93
2022-10-19T05:42:48.264Z,13.82
2022-10-19T05:43:53.316Z,13.79
2022-10-19T05:44:54.666Z,13.77
2022-10-19T05:45:56.025Z,13.81
2022-10-19T05:46:57.393Z,13.82
2022-10-19T05:47:58.770Z,13.79
2022-10-19T05:49:00.142Z,13.86
2022-10-19T05:50:01.447Z,13.86
2022-10-19T05:51:03.959Z,13.87
2022-10-19T05:52:05.309Z,13.86
2022-10-19T05:53:06.716Z,13.88
2022-10-19T05:54:08.452Z,13.84
2022-10-19T05:55:09.834Z,13.86
2022-10-19T05:56:15.841Z,13.85
2022-10-19T05:57:17.161Z,13.84
2022-10-19T05:58:18.492Z,13.84
2022-10-19T05:59:20.468Z,13.88
2022-10-19T06:00:21.826Z,13.86
2022-10-19T06:01:23.154Z,13.78
2022-10-19T06:02:24.533Z,13.79
2022-10-19T06:03:26.180Z,13.78
2022-10-19T06:04:27.504Z,13.83
2022-10-19T06:05:28.857Z,13.82
2022-10-19T06:06:30.628Z,13.81
2022-10-19T06:07:32.311Z,13.84
2022-10-19T06:08:34.382Z,13.83
2022-10-19T06:09:35.751Z,13.82
2022-10-19T06:10:37.055Z,13.81
2022-10-19T06:11:39.491Z,13.81
2022-10-19T06:12:40.805Z,13.84
2022-10-19T06:13:42.644Z,13.86
2022-10-19T06:14:44.002Z,13.87
2022-10-19T06:15:49.705Z,13.89
2022-10-19T06:16:51.031Z,13.91
2022-10-19T06:17:52.316Z,13.93
2022-10-19T06:18:54.144Z,13.94
2022-10-19T06:19:55.476Z,13.95
2022-10-19T06:21:01.053Z,13.96
2022-10-19T06:22:02.346Z,13.94
2022-10-19T06:23:03.776Z,13.93
2022-10-19T06:24:05.420Z,13.97
2022-10-19T06:25:06.975Z,13.92
2022-10-19T06:26:10.092Z,13.88
2022-10-19T06:27:11.448Z,13.88
2022-10-19T06:28:12.832Z,13.89
2022-10-19T06:29:14.170Z,13.91
2022-10-19T06:30:15.604Z,13.89
2022-10-19T06:31:17.272Z,13.88
2022-10-19T06:32:18.608Z,13.85
2022-10-19T06:33:19.973Z,13.85
2022-10-19T06:34:21.414Z,13.86
2022-10-19T06:35:22.792Z,13.84
2022-10-19T06:36:25.501Z,13.81
2022-10-19T06:37:26.841Z,13.79
2022-10-19T06:38:28.222Z,13.80
2022-10-19T06:39:29.526Z,13.77
2022-10-19T06:40:30.974Z,13.76
2022-10-19T06:41:32.568Z,13.80
2022-10-19T06:42:50.749Z,13.80
2022-10-19T06:43:53.037Z,13.78
2022-10-19T06:44:54.383Z,13.75
2022-10-19T06:45:55.756Z,13.77
2022-10-19T06:46:57.129Z,13.76
2022-10-19T06:48:02.222Z,13.74
2022-10-19T06:49:06.362Z,13.73
2022-10-19T06:50:08.102Z,13.73
2022-10-19T06:51:09.437Z,13.75
2022-10-19T06:52:11.068Z,13.76
2022-10-19T06:53:12.581Z,13.76
2022-10-19T06:54:13.962Z,13.76
2022-10-19T06:55:15.317Z,13.78
2022-10-19T06:56:16.650Z,13.77
2022-10-19T06:57:18.016Z,13.80
2022-10-19T06:58:19.540Z,13.81
2022-10-19T06:59:20.880Z,13.81
2022-10-19T07:00:22.551Z,13.84
2022-10-19T07:01:24.457Z,13.84
2022-10-19T07:02:25.921Z,13.86
2022-10-19T07:03:27.895Z,13.88
2022-10-19T07:04:29.280Z,13.90
2022-10-19T07:05:30.591Z,13.95
2022-10-19T07:06:32.037Z,14.02
2022-10-19T07:07:33.638Z,14.00
2022-10-19T07:08:36.217Z,14.04
2022-10-19T07:09:37.554Z,14.10
2022-10-19T07:10:38.910Z,14.10
2022-10-19T07:11:45.502Z,14.11
2022-10-19T07:12:47.346Z,14.10
2022-10-19T07:13:48.713Z,14.09
2022-10-19T07:14:50.020Z,14.07
2022-10-19T07:15:56.506Z,14.07
2022-10-19T07:16:57.889Z,14.12
2022-10-19T07:17:59.274Z,14.19
2022-10-19T07:19:00.648Z,14.20
2022-10-19T07:20:02.128Z,14.26
2022-10-19T07:21:04.828Z,14.28
2022-10-19T07:22:06.236Z,14.29
2022-10-19T07:23:08.013Z,14.37
2022-10-19T07:24:09.551Z,14.42
2022-10-19T07:25:10.904Z,14.39
2022-10-19T07:26:16.942Z,14.40
2022-10-19T07:27:18.407Z,14.40
2022-10-19T07:28:20.769Z,14.37
2022-10-19T07:29:22.254Z,14.36
2022-10-19T07:30:23.937Z,14.39
2022-10-19T07:31:25.734Z,14.41
2022-10-19T07:32:28.801Z,14.40
2022-10-19T07:33:30.156Z,14.45
2022-10-19T07:34:31.508Z,14.45
2022-10-19T07:35:32.895Z,14.47
2022-10-19T07:36:35.025Z,14.44
2022-10-19T07:37:36.607Z,14.37
2022-10-19T07:38:38.086Z,14.36
2022-10-19T07:39:39.408Z,14.41
2022-10-19T07:40:44.764Z,14.47
2022-10-19T07:41:48.745Z,14.48
2022-10-19T07:42:50.078Z,14.45
2022-10-19T07:43:51.982Z,14.44
2022-10-19T07:44:53.297Z,14.44
2022-10-19T07:45:58.274Z,14.47
2022-10-19T07:46:59.622Z,14.56
2022-10-19T07:48:00.989Z,14.59
2022-10-19T07:49:03.041Z,14.54
2022-10-19T07:50:04.552Z,14.58
2022-10-19T07:51:07.637Z,14.64
2022-10-19T07:52:08.955Z,14.62
2022-10-19T07:53:10.278Z,14.64
2022-10-19T07:54:11.665Z,14.62
2022-10-19T07:55:13.086Z,14.62
2022-10-19T07:56:18.559Z,14.62
2022-10-19T07:57:19.966Z,14.60
2022-10-19T07:58:21.400Z,14.57
2022-10-19T07:59:22.744Z,14.55
2022-10-19T08:00:24.167Z,14.51
2022-10-19T08:01:27.577Z,14.52
2022-10-19T08:02:39.414Z,14.49
2022-10-19T08:05:13.684Z,14.55
2022-10-19T08:06:16.443Z,14.60
2022-10-19T08:07:17.756Z,14.74
2022-10-19T08:08:19.097Z,14.74
2022-10-19T08:09:47.164Z,14.81
2022-10-19T08:10:41.764Z,14.90
2022-10-19T08:11:43.129Z,14.98
2022-10-19T08:12:44.447Z,15.00
2022-10-19T08:13:46.125Z,15.00
2022-10-19T08:14:47.448Z,15.07
2022-10-19T08:15:49.074Z,15.12
2022-10-19T08:16:50.406Z,15.15
2022-10-19T08:17:51.742Z,15.19
2022-10-19T08:18:55.730Z,15.17
2022-10-19T08:19:57.097Z,15.22
2022-10-19T08:21:01.782Z,15.14
2022-10-19T08:22:03.110Z,15.08
2022-10-19T08:23:04.452Z,15.05
2022-10-19T08:24:06.782Z,15.03
2022-10-19T08:25:08.288Z,15.00
2022-10-19T08:26:09.616Z,14.97
2022-10-19T08:27:10.958Z,14.93
2022-10-19T08:28:12.250Z,14.95
2022-10-19T08:29:14.997Z,14.96
2022-10-19T08:30:16.342Z,14.98
2022-10-19T08:31:19.125Z,15.04
2022-10-19T08:32:20.596Z,15.07
2022-10-19T08:33:21.929Z,15.13
2022-10-19T08:34:23.254Z,15.19
2022-10-19T08:35:24.632Z,15.26
2022-10-19T08:36:26.011Z,15.31
2022-10-19T08:37:40.809Z,15.39
2022-10-19T08:38:46.273Z,15.41
2022-10-19T08:39:47.634Z,15.42
2022-10-19T08:40:48.974Z,15.40
2022-10-19T08:41:58.245Z,15.37
2022-10-19T08:43:08.626Z,15.37
2022-10-19T08:44:28.510Z,15.34
2022-10-19T08:45:55.396Z,15.32
2022-10-19T08:47:02.380Z,15.38
2022-10-19T08:48:04.149Z,15.43
2022-10-19T08:49:08.463Z,15.46
2022-10-19T08:50:20.285Z,15.48
2022-10-19T08:51:22.101Z,15.55
2022-10-19T08:52:35.243Z,15.53
2022-10-19T08:53:42.586Z,15.56
2022-10-19T08:54:49.771Z,15.45
2022-10-19T08:55:53.881Z,15.44
2022-10-19T08:57:27.745Z,15.48
2022-10-19T08:58:53.803Z,15.60
2022-10-19T08:59:59.956Z,15.66
2022-10-19T09:01:04.255Z,15.68
2022-10-19T09:02:08.429Z,15.64
2022-10-19T09:03:15.600Z,15.68
2022-10-19T09:04:18.844Z,15.66
2022-10-19T09:05:20.148Z,15.63
2022-10-19T09:06:28.605Z,15.61
2022-10-19T09:07:32.851Z,15.61
2022-10-19T09:08:37.613Z,15.69
2022-10-19T09:09:42.055Z,15.73
2022-10-19T09:10:44.191Z,15.67
2022-10-19T09:11:49.633Z,15.64
2022-10-19T09:12:58.843Z,15.68
2022-10-19T09:14:15.302Z,15.68
2022-10-19T09:15:21.889Z,15.67
2022-10-19T09:16:24.397Z,15.69
2022-10-19T09:17:25.836Z,15.73
2022-10-19T09:18:28.361Z,15.73
2022-10-19T09:19:30.245Z,15.79
2022-10-19T09:20:34.898Z,15.76
2022-10-19T09:21:56.463Z,15.78
2022-10-19T09:23:18.117Z,15.81
2022-10-19T09:24:31.842Z,15.92
2022-10-19T09:25:34.875Z,15.91
2022-10-19T09:26:45.459Z,15.91
2022-10-19T09:27:52.866Z,15.97
2022-10-19T09:28:57.126Z,15.87
2022-10-19T09:30:01.179Z,15.91
2022-10-19T09:31:03.001Z,15.87
2022-10-19T09:32:09.864Z,15.87
2022-10-19T09:33:15.560Z,15.91
2022-10-19T09:34:22.881Z,15.94
2022-10-19T09:35:32.433Z,16.02
2022-10-19T09:36:50.001Z,16.11
2022-10-19T09:37:52.477Z,16.23
2022-10-19T09:38:53.789Z,16.21
2022-10-19T09:39:56.073Z,16.26
2022-10-19T09:40:58.117Z,16.28
2022-10-19T09:42:13.490Z,16.34
2022-10-19T09:43:15.319Z,16.31
2022-10-19T09:44:17.077Z,16.39
2022-10-19T09:45:40.630Z,16.38
2022-10-19T09:46:47.035Z,16.38
2022-10-19T09:47:48.652Z,16.37
2022-10-19T09:48:51.599Z,16.37
2022-10-19T09:50:05.025Z,16.38
2022-10-19T09:51:14.236Z,16.42
2022-10-19T09:52:33.670Z,16.42
2022-10-19T09:53:35.046Z,16.41
2022-10-19T09:54:37.777Z,16.40
2022-10-19T09:55:42.444Z,16.43
2022-10-19T09:56:52.529Z,16.49
2022-10-19T09:58:19.927Z,16.54
2022-10-19T09:59:22.733Z,16.54
2022-10-19T10:00:30.852Z,16.58
2022-10-19T10:01:41.504Z,16.57
2022-10-19T10:02:48.948Z,16.57
2022-10-19T10:03:53.804Z,16.57
2022-10-19T10:05:03.622Z,16.55
2022-10-19T10:06:13.935Z,16.57
2022-10-19T10:07:16.549Z,16.62
2022-10-19T10:08:19.728Z,16.70
2022-10-19T10:09:25.474Z,16.76
2022-10-19T10:10:38.782Z,16.76
2022-10-19T10:11:40.346Z,16.79
2022-10-19T10:12:42.685Z,16.80
2022-10-19T10:13:48.225Z,16.86
2022-10-19T10:14:49.937Z,16.92
2022-10-19T10:15:55.896Z,16.95
2022-10-19T10:17:01.145Z,17.03
2022-10-19T10:18:02.898Z,17.07
2022-10-19T10:19:06.531Z,17.13
2022-10-19T10:20:18.143Z,17.15
2022-10-19T10:21:29.706Z,17.19
2022-10-19T10:22:35.580Z,17.18
2022-10-19T10:23:37.082Z,17.17
2022-10-19T10:24:50.874Z,17.25
2022-10-19T10:25:55.462Z,17.31
2022-10-19T10:26:58.622Z,17.36
2022-10-19T10:27:59.911Z,17.41
2022-10-19T10:29:01.671Z,17.40
2022-10-19T10:30:09.593Z,17.47
2022-10-19T10:31:10.970Z,17.54
2022-10-19T10:32:13.497Z,17.58
2022-10-19T10:33:27.074Z,17.60
2022-10-19T10:34:51.004Z,17.51
2022-10-19T10:36:01.406Z,17.57
2022-10-19T10:37:07.137Z,17.55
2022-10-19T10:38:19.817Z,17.61
2022-10-19T10:39:21.363Z,17.66
2022-10-19T10:40:30.220Z,17.66
2022-10-19T10:41:37.238Z,17.68
2022-10-19T10:42:43.024Z,17.68
2022-10-19T10:44:00.838Z,17.75
2022-10-19T10:45:15.862Z,17.74
2022-10-19T10:46:23.321Z,17.77
2022-10-19T10:47:25.809Z,17.74
2022-10-19T10:48:28.306Z,17.77
2022-10-19T10:49:33.094Z,17.81
2022-10-19T10:50:36.353Z,17.78
2022-10-19T10:51:39.016Z,17.68
2022-10-19T10:52:40.564Z,17.59
2022-10-19T10:53:43.363Z,17.57
2022-10-19T10:55:07.653Z,17.55
2022-10-19T10:56:25.235Z,17.63
2022-10-19T10:57:29.496Z,17.63
2022-10-19T10:58:35.741Z,17.57
2022-10-19T10:59:45.655Z,17.49
2022-10-19T11:00:48.994Z,17.49
2022-10-19T11:02:01.912Z,17.48
2022-10-19T11:03:22.118Z,17.49
2022-10-19T11:04:25.942Z,17.54
2022-10-19T11:05:38.693Z,17.57
2022-10-19T11:06:44.606Z,17.51
2022-10-19T11:07:48.338Z,17.46
2022-10-19T11:08:52.377Z,17.43
2022-10-19T11:09:58.449Z,17.39
2022-10-19T11:11:08.880Z,17.37
2022-10-19T11:12:12.424Z,17.38
2022-10-19T11:13:16.602Z,17.36
2022-10-19T11:14:23.867Z,17.42
2022-10-19T11:15:33.393Z,17.46
2022-10-19T11:16:38.623Z,17.44
2022-10-19T11:17:45.422Z,17.43
2022-10-19T11:18:52.987Z,17.46
2022-10-19T11:19:54.290Z,17.53
2022-10-19T11:21:07.005Z,17.54
2022-10-19T11:22:26.290Z,17.60
2022-10-19T11:23:31.353Z,17.63
2022-10-19T11:24:38.760Z,17.75
2022-10-19T11:25:44.981Z,17.76
2022-10-19T11:27:04.589Z,17.79
2022-10-19T11:28:24.780Z,17.88
2022-10-19T11:29:44.800Z,18.02
2022-10-19T11:31:06.503Z,18.12
2022-10-19T11:32:31.672Z,18.21
2022-10-19T11:33:33.431Z,18.29
2022-10-19T11:34:45.289Z,18.30
2022-10-19T11:35:46.571Z,18.36
2022-10-19T11:36:59.167Z,18.41
2022-10-19T11:38:21.288Z,18.44
2022-10-19T11:39:43.241Z,18.52
2022-10-19T11:41:17.390Z,18.48
2022-10-19T11:42:38.503Z,18.39
2022-10-19T11:43:58.828Z,18.40
2022-10-19T11:45:26.369Z,18.50
2022-10-19T11:46:46.306Z,18.53
2022-10-19T11:47:56.496Z,18.60
2022-10-19T11:49:06.373Z,18.71
2022-10-19T11:50:10.541Z,18.75
2022-10-19T11:51:25.934Z,18.76
2022-10-19T11:52:33.743Z,18.77
2022-10-19T11:53:48.679Z,18.74
2022-10-19T11:55:03.004Z,18.77
2022-10-19T11:56:10.717Z,18.71
2022-10-19T11:57:23.851Z,18.71
2022-10-19T11:58:33.701Z,18.75
2022-10-19T11:59:44.158Z,18.73
2022-10-19T12:00:49.946Z,18.77
2022-10-19T12:02:02.097Z,18.74
2022-10-19T12:03:29.755Z,18.65
2022-10-19T12:04:56.871Z,18.64
2022-10-19T12:06:16.751Z,18.67
2022-10-19T12:07:36.430Z,18.72
2022-10-19T12:08:37.759Z,18.72
2022-10-19T12:09:45.694Z,18.77
2022-10-19T12:10:52.881Z,18.84
2022-10-19T12:12:03.316Z,18.83
2022-10-19T12:13:07.967Z,18.76
2022-10-19T12:14:13.460Z,18.72
2022-10-19T12:15:33.027Z,18.76
2022-10-19T12:16:37.405Z,18.87
2022-10-19T12:17:41.186Z,18.79
2022-10-19T12:18:45.738Z,18.75
2022-10-19T12:19:50.029Z,18.69
2022-10-19T12:20:52.495Z,18.72
2022-10-19T12:21:55.073Z,18.70
2022-10-19T12:22:57.883Z,18.71
2022-10-19T12:24:02.068Z,18.72
2022-10-19T12:25:03.925Z,18.71
2022-10-19T12:26:07.623Z,18.73
2022-10-19T12:27:16.318Z,18.77
2022-10-19T12:28:22.526Z,18.80
2022-10-19T12:29:26.941Z,18.79
2022-10-19T12:30:28.382Z,18.76
2022-10-19T12:31:30.365Z,18.76
2022-10-19T12:32:37.395Z,18.74
2022-10-19T12:33:45.919Z,18.74
2022-10-19T12:35:01.049Z,18.76
2022-10-19T12:36:08.784Z,18.80
2022-10-19T12:37:19.291Z,18.80
2022-10-19T12:38:24.742Z,18.83
2022-10-19T12:39:40.932Z,18.85
2022-10-19T12:40:48.106Z,18.79
2022-10-19T12:41:55.478Z,18.74
2022-10-19T12:42:56.801Z,18.77
2022-10-19T12:44:09.080Z,18.76
2022-10-19T12:45:32.178Z,18.76
2022-10-19T12:46:48.409Z,18.76
2022-10-19T12:48:22.488Z,18.76
2022-10-19T12:49:26.500Z,18.75
2022-10-19T12:50:46.628Z,18.75
2022-10-19T12:51:47.968Z,18.81
2022-10-19T12:52:49.719Z,18.82
2022-10-19T12:53:51.093Z,18.88
2022-10-19T12:54:52.515Z,18.95
2022-10-19T12:55:59.821Z,18.98
2022-10-19T12:57:01.994Z,18.94
2022-10-19T12:58:05.080Z,18.95
2022-10-19T12:59:19.619Z,18.95
2022-10-19T13:00:25.091Z,19.00
2022-10-19T13:01:29.625Z,19.01
2022-10-19T13:03:41.981Z,19.11
2022-10-19T13:04:51.921Z,19.14
2022-10-19T13:05:57.145Z,19.21
2022-10-19T13:06:58.596Z,19.21
2022-10-19T13:08:06.980Z,19.23
2022-10-19T13:09:22.106Z,19.21
2022-10-19T13:10:26.100Z,19.19
2022-10-19T13:11:27.486Z,19.12
2022-10-19T13:12:40.971Z,19.12
2022-10-19T13:13:54.054Z,19.13
2022-10-19T13:14:59.069Z,19.23
2022-10-19T13:16:00.448Z,19.23
2022-10-19T13:17:02.311Z,19.21
2022-10-19T13:18:04.947Z,19.20
2022-10-19T13:19:12.169Z,19.25
2022-10-19T13:20:13.648Z,19.32
2022-10-19T13:21:35.123Z,19.16
2022-10-19T13:22:36.706Z,19.14
2022-10-19T13:23:39.531Z,19.09
2022-10-19T13:25:47.180Z,19.09
2022-10-19T13:27:02.643Z,19.08
2022-10-19T13:28:06.983Z,19.07
2022-10-19T13:29:24.089Z,19.09
2022-10-19T13:30:37.484Z,19.07
2022-10-19T13:31:39.376Z,19.15
2022-10-19T13:32:40.684Z,19.10
2022-10-19T13:33:44.902Z,19.10
2022-10-19T13:34:46.851Z,19.15
2022-10-19T13:35:48.316Z,19.19
2022-10-19T13:36:59.968Z,19.19
2022-10-19T13:38:16.924Z,19.19
2022-10-19T13:39:26.994Z,19.17
2022-10-19T13:40:28.380Z,19.15
2022-10-19T13:41:38.695Z,19.23
2022-10-19T13:42:40.238Z,19.30
2022-10-19T13:43:52.762Z,19.32
2022-10-19T13:44:54.107Z,19.26
2022-10-19T13:46:04.478Z,19.27
2022-10-19T13:47:08.821Z,19.26
2022-10-19T13:48:23.998Z,19.31
2022-10-19T13:49:43.994Z,19.27
2022-10-19T13:50:59.150Z,19.34
2022-10-19T13:52:19.509Z,19.35
2022-10-19T13:53:29.398Z,19.26
2022-10-19T13:54:43.068Z,19.26
2022-10-19T13:56:03.323Z,19.20
2022-10-19T13:57:04.696Z,19.18
2022-10-19T13:58:16.840Z,19.25
2022-10-19T13:59:32.190Z,19.27
2022-10-19T14:00:52.022Z,19.27
2022-10-19T14:02:01.613Z,19.28
2022-10-19T14:03:11.753Z,19.29